Time;durP1;ratioP1;P1;durP2;ratioP2;P2;SDS_P1;SDS_P2;PMS_P1;PMS_P2;Temp;Humidity;BMP_temperature;BMP_pressure;BME280_temperature;BME280_humidity;BME280_pressure;Samples;Min_cycle;Max_cycle;Signal;HPM_P1;HPM_P2
2022/06/11 00:09:22;;;;;;;0.20;0.00;;;22.30;99.90;;;;;;21054880;28;20216;-75
2022/06/11 00:19:27;;;;;;;0.20;0.00;;;22.00;99.90;;;;;;21055378;28;20251;-76
2022/06/11 00:29:35;;;;;;;0.20;0.00;;;22.00;99.90;;;;;;21060335;28;20204;-77
2022/06/11 00:39:40;;;;;;;0.20;0.00;;;21.80;99.90;;;;;;21070331;28;20244;-77
2022/06/11 00:49:50;;;;;;;0.20;0.00;;;21.60;99.90;;;;;;21071042;28;20219;-77
2022/06/11 00:59:57;;;;;;;0.20;0.00;;;21.50;99.90;;;;;;21069340;28;20224;-76
2022/06/11 01:10:18;;;;;;;0.20;0.00;;;21.20;99.90;;;;;;21069692;28;20216;-76
2022/06/11 01:20:41;;;;;;;0.20;0.00;;;21.20;99.90;;;;;;21069431;28;20232;-76
2022/06/11 01:30:51;;;;;;;0.20;0.00;;;21.10;99.90;;;;;;21066705;28;20279;-75
2022/06/11 01:41:02;;;;;;;0.20;0.10;;;20.90;99.90;;;;;;21065621;28;20284;-75
2022/06/11 01:51:23;;;;;;;0.20;0.10;;;20.40;99.90;;;;;;21065472;28;20208;-73
2022/06/11 02:01:40;;;;;;;0.20;0.00;;;20.30;99.90;;;;;;21064413;28;20291;-72
2022/06/11 02:11:48;;;;;;;0.20;0.00;;;20.30;99.90;;;;;;21064778;28;20282;-73
2022/06/11 02:21:56;;;;;;;0.20;0.00;;;20.30;99.90;;;;;;21063934;28;20236;-72
2022/06/11 02:32:09;;;;;;;0.20;0.10;;;20.30;99.90;;;;;;21062124;28;20768;-74
2022/06/11 02:42:16;;;;;;;0.20;0.10;;;20.20;99.90;;;;;;21063642;28;20212;-73
2022/06/11 02:52:25;;;;;;;0.20;0.10;;;19.90;99.90;;;;;;21061266;28;20269;-74
2022/06/11 03:02:29;;;;;;;0.20;0.10;;;20.00;99.90;;;;;;21043118;28;20220;-73
2022/06/11 03:12:34;;;;;;;0.20;0.00;;;20.20;99.90;;;;;;21060047;28;20227;-74
2022/06/11 03:22:38;;;;;;;0.20;0.10;;;20.90;99.90;;;;;;21058902;28;20251;-73
2022/06/11 03:32:43;;;;;;;0.20;0.10;;;20.80;99.90;;;;;;21219324;28;20214;-73
2022/06/11 03:42:47;;;;;;;0.20;0.10;;;20.70;99.90;;;;;;21207953;28;20234;-73
2022/06/11 03:52:53;;;;;;;0.20;0.10;;;20.10;99.90;;;;;;21209322;28;20267;-74
2022/06/11 04:02:57;;;;;;;0.20;0.00;;;20.00;99.90;;;;;;21225286;28;20203;-73
2022/06/11 04:13:02;;;;;;;0.20;0.00;;;19.70;99.90;;;;;;21206465;28;20210;-73
2022/06/11 04:23:06;;;;;;;0.20;0.00;;;19.70;99.90;;;;;;21224262;28;20245;-74
2022/06/11 04:33:13;;;;;;;0.20;0.07;;;19.70;99.90;;;;;;21188426;28;20191;-73
2022/06/11 04:43:17;;;;;;;0.20;0.10;;;19.70;99.90;;;;;;21222845;28;20250;-73
2022/06/11 04:53:22;;;;;;;0.20;0.10;;;19.80;99.90;;;;;;21223866;28;20215;-74
2022/06/11 05:03:26;;;;;;;0.20;0.10;;;20.20;99.90;;;;;;21221571;28;20223;-74
2022/06/11 05:13:31;;;;;;;0.20;0.10;;;20.50;99.90;;;;;;21223914;28;20215;-73
2022/06/11 05:23:35;;;;;;;0.20;0.10;;;20.80;99.90;;;;;;21237736;28;20223;-73
2022/06/11 05:33:42;;;;;;;0.20;0.00;;;20.80;99.90;;;;;;21217999;28;20235;-73
2022/06/11 05:43:46;;;;;;;0.20;0.00;;;21.20;99.90;;;;;;21201347;28;20228;-72
2022/06/11 05:53:55;;;;;;;0.20;0.00;;;21.60;99.90;;;;;;21215049;28;20287;-74
2022/06/11 06:03:58;;;;;;;0.20;0.00;;;22.30;99.90;;;;;;21233348;28;20282;-72
2022/06/11 06:14:04;;;;;;;0.20;0.10;;;22.70;99.90;;;;;;21231972;28;20226;-72
2022/06/11 06:24:08;;;;;;;0.20;0.00;;;23.10;99.90;;;;;;21214535;28;20291;-72
2022/06/11 06:34:14;;;;;;;0.20;0.00;;;23.60;99.90;;;;;;21210476;28;20287;-73
2022/06/11 06:44:17;;;;;;;0.20;0.00;;;23.90;99.90;;;;;;21230104;28;20209;-73
2022/06/11 06:54:23;;;;;;;0.20;0.00;;;23.90;99.90;;;;;;21228278;28;20218;-72
2022/06/11 07:04:27;;;;;;;0.20;0.00;;;23.70;99.90;;;;;;21210335;28;20259;-76
2022/06/11 07:14:33;;;;;;;0.20;0.00;;;23.80;99.90;;;;;;21225889;28;20215;-73
2022/06/11 07:24:40;;;;;;;0.20;0.00;;;23.60;99.90;;;;;;21226699;28;20251;-73
2022/06/11 07:34:46;;;;;;;0.20;0.00;;;23.40;99.90;;;;;;21187530;28;20241;-72
2022/06/11 07:44:50;;;;;;;0.20;0.00;;;23.80;99.90;;;;;;21219932;28;20210;-73
2022/06/11 07:54:55;;;;;;;0.20;0.00;;;24.10;99.90;;;;;;21221561;28;20231;-72
2022/06/11 08:04:59;;;;;;;0.20;0.10;;;24.40;99.90;;;;;;21220763;28;20233;-72
2022/06/11 08:15:05;;;;;;;0.20;0.00;;;24.70;99.90;;;;;;21212212;28;20265;-72
2022/06/11 08:25:09;;;;;;;0.20;0.00;;;24.60;99.90;;;;;;21220020;28;20211;-73
2022/06/11 08:35:16;;;;;;;0.20;0.00;;;25.00;99.90;;;;;;21219897;28;20274;-76
2022/06/11 08:45:22;;;;;;;0.20;0.10;;;25.30;99.90;;;;;;21199320;28;20202;-71
2022/06/11 08:55:33;;;;;;;0.20;0.10;;;25.50;99.90;;;;;;21232056;28;20235;-71
2022/06/11 09:05:57;;;;;;;0.20;0.00;;;25.60;99.90;;;;;;21237126;28;20225;-73
2022/06/11 09:16:13;;;;;;;0.20;0.00;;;25.90;99.90;;;;;;21233728;28;20253;-72
2022/06/11 09:26:35;;;;;;;0.20;0.00;;;25.90;99.90;;;;;;21232436;28;20276;-72
2022/06/11 09:36:42;;;;;;;0.20;0.00;;;26.10;99.90;;;;;;21213154;28;20230;-73
2022/06/11 09:46:53;;;;;;;0.20;0.00;;;26.30;99.90;;;;;;21231404;28;20219;-72
2022/06/11 09:57:09;;;;;;;0.20;0.00;;;26.60;99.90;;;;;;21228107;28;20246;-74
2022/06/11 10:07:17;;;;;;;0.20;0.00;;;26.90;99.90;;;;;;21210025;28;20214;-73
2022/06/11 10:17:28;;;;;;;0.20;0.00;;;27.40;99.90;;;;;;21227886;28;20253;-73
2022/06/11 10:27:38;;;;;;;0.20;0.10;;;27.70;99.90;;;;;;21229049;28;20206;-73
2022/06/11 10:37:48;;;;;;;0.20;0.00;;;27.90;99.90;;;;;;21226889;28;20254;-72
2022/06/11 10:47:54;;;;;;;0.20;0.00;;;28.30;99.90;;;;;;21225984;28;20225;-76
2022/06/11 10:58:04;;;;;;;0.20;0.00;;;28.80;99.90;;;;;;21224185;28;20227;-72
2022/06/11 11:08:08;;;;;;;0.20;0.00;;;29.20;99.90;;;;;;21205218;28;20194;-71
2022/06/11 11:18:20;;;;;;;0.20;0.00;;;29.60;99.90;;;;;;21222960;28;20792;-72
2022/06/11 11:28:28;;;;;;;0.20;0.00;;;30.10;99.90;;;;;;21224204;28;20191;-74
2022/06/11 11:38:33;;;;;;;0.20;0.00;;;30.60;99.90;;;;;;21127429;28;20283;-72
2022/06/11 11:48:38;;;;;;;0.20;0.00;;;31.20;99.90;;;;;;21125353;28;20188;-71
2022/06/11 11:58:51;;;;;;;0.20;0.00;;;31.50;99.90;;;;;;21136433;28;20251;-70
2022/06/11 12:09:01;;;;;;;0.20;0.00;;;31.90;99.90;;;;;;21134851;28;20199;-74
2022/06/11 12:19:12;;;;;;;0.20;0.00;;;31.70;99.90;;;;;;21132462;28;20259;-74
2022/06/11 12:29:19;;;;;;;0.20;0.00;;;31.80;99.90;;;;;;21134748;28;20221;-74
2022/06/11 12:39:40;;;;;;;0.20;0.00;;;32.00;99.90;;;;;;21134357;28;20212;-73
2022/06/11 12:49:54;;;;;;;0.20;0.00;;;31.90;99.90;;;;;;21134698;28;20224;-76
2022/06/11 13:00:18;;;;;;;0.20;0.00;;;32.20;99.90;;;;;;21150511;28;20243;-74
2022/06/11 13:10:39;;;;;;;0.20;0.00;;;31.80;99.90;;;;;;21097869;28;20223;-73
2022/06/11 13:20:55;;;;;;;0.20;0.00;;;32.40;99.90;;;;;;21153111;28;20360;-74
2022/06/11 13:31:05;;;;;;;0.20;0.00;;;31.60;99.90;;;;;;21131626;28;20226;-74
2022/06/11 13:41:16;;;;;;;0.20;0.15;;;32.10;99.90;;;;;;21123927;28;20215;-76
2022/06/11 13:51:22;;;;;;;0.20;0.00;;;32.10;99.90;;;;;;21151540;28;20219;-72
2022/06/11 14:01:41;;;;;;;0.20;0.10;;;32.60;99.90;;;;;;21140679;28;20220;-73
2022/06/11 14:11:46;;;;;;;0.20;0.03;;;32.70;99.90;;;;;;21127979;28;20199;-73
2022/06/11 14:21:53;;;;;;;0.20;0.00;;;32.40;99.90;;;;;;21146479;28;20251;-73
2022/06/11 14:32:20;;;;;;;0.20;0.00;;;33.10;99.90;;;;;;21142381;28;20219;-72
2022/06/11 14:42:25;;;;;;;0.20;0.00;;;33.40;99.90;;;;;;21122437;28;20230;-73
2022/06/11 14:52:51;;;;;;;0.20;0.00;;;33.40;99.90;;;;;;21140479;28;20199;-72
2022/06/11 15:03:24;;;;;;;0.20;0.00;;;33.30;99.90;;;;;;21140904;28;20220;-72
2022/06/11 15:14:06;;;;;;;0.20;0.00;;;33.80;99.90;;;;;;21139270;28;20196;-72
2022/06/11 15:24:16;;;;;;;0.20;0.00;;;33.80;99.90;;;;;;21136971;28;20243;-73
2022/06/11 15:34:24;;;;;;;0.20;0.00;;;33.50;99.90;;;;;;21136354;28;20222;-73
2022/06/11 15:44:36;;;;;;;0.20;0.00;;;33.10;99.90;;;;;;21133963;28;20347;-72
2022/06/11 16:05:04;;;;;;;0.20;0.00;;;33.30;99.90;;;;;;21095964;28;20242;-68
2022/06/11 16:15:17;;;;;;;0.20;0.00;;;33.30;99.90;;;;;;21129133;28;20228;-74
2022/06/11 16:25:31;;;;;;;0.20;0.00;;;32.90;99.90;;;;;;21131462;28;20199;-77
2022/06/11 16:35:38;;;;;;;0.20;0.00;;;32.20;99.90;;;;;;21133572;28;20243;-72
2022/06/11 16:45:47;;;;;;;0.20;0.00;;;32.10;99.90;;;;;;21130618;28;20192;-72
2022/06/11 16:56:10;;;;;;;0.20;0.00;;;31.00;99.90;;;;;;21129288;28;20235;-73
2022/06/11 17:06:37;;;;;;;0.20;0.00;;;32.00;99.90;;;;;;21109569;28;20250;-73
2022/06/11 17:16:41;;;;;;;0.20;0.00;;;32.80;99.90;;;;;;21127086;28;20243;-70
2022/06/11 17:26:51;;;;;;;0.20;0.00;;;31.60;99.90;;;;;;21145499;28;20200;-73
2022/06/11 17:37:00;;;;;;;0.20;0.00;;;32.30;99.90;;;;;;21127191;28;20333;-71
2022/06/11 17:47:07;;;;;;;0.20;0.00;;;31.90;99.90;;;;;;21126579;28;20243;-72
2022/06/11 17:57:12;;;;;;;0.20;0.00;;;29.00;99.90;;;;;;21140978;28;20231;-72
2022/06/11 18:07:18;;;;;;;0.20;0.00;;;30.40;99.90;;;;;;21103204;28;20232;-73
2022/06/11 18:17:22;;;;;;;0.20;0.00;;;27.90;99.90;;;;;;21095140;28;20232;-72
2022/06/11 18:27:27;;;;;;;0.20;0.00;;;27.70;99.90;;;;;;21138875;28;20184;-70
2022/06/11 18:37:31;;;;;;;0.20;0.00;;;27.00;99.90;;;;;;21136887;28;20236;-74
2022/06/11 18:47:36;;;;;;;0.20;0.00;;;26.50;99.90;;;;;;21139595;28;20192;-72
2022/06/11 18:57:41;;;;;;;0.20;0.00;;;26.00;99.90;;;;;;21126501;28;20216;-71
2022/06/11 19:07:46;;;;;;;0.20;0.00;;;26.00;99.90;;;;;;21130729;28;20225;-69
2022/06/11 19:17:54;;;;;;;0.20;0.00;;;25.70;99.90;;;;;;21119270;28;20223;-71
2022/06/11 19:28:01;;;;;;;0.20;0.00;;;25.50;99.90;;;;;;21116266;28;20215;-71
2022/06/11 19:38:06;;;;;;;0.20;0.00;;;25.20;99.90;;;;;;21115843;28;20319;-70
2022/06/11 19:48:14;;;;;;;0.20;0.00;;;25.30;99.90;;;;;;21132450;28;20192;-71
2022/06/11 19:58:19;;;;;;;0.20;0.00;;;25.40;99.90;;;;;;21134846;28;20227;-71
2022/06/11 20:08:25;;;;;;;0.20;0.00;;;25.20;99.90;;;;;;21118343;28;20217;-71
2022/06/11 20:18:29;;;;;;;0.20;0.00;;;25.00;99.90;;;;;;21133012;28;20212;-71
2022/06/11 20:28:34;;;;;;;0.20;0.00;;;24.80;99.90;;;;;;21135887;28;20196;-72
2022/06/11 20:38:39;;;;;;;0.20;0.00;;;24.80;99.90;;;;;;21135200;28;20793;-71
2022/06/11 20:48:44;;;;;;;0.20;0.00;;;24.60;99.90;;;;;;21126450;28;21214;-71
2022/06/11 20:58:48;;;;;;;0.20;0.00;;;24.50;99.90;;;;;;21133383;28;20296;-71
2022/06/11 21:19:15;;;;;;;0.20;0.00;;;24.30;99.90;;;;;;21114399;28;20260;-72
2022/06/11 21:29:20;;;;;;;0.20;0.00;;;24.30;99.90;;;;;;21149176;28;20263;-72
2022/06/11 21:39:24;;;;;;;0.20;0.00;;;24.40;99.90;;;;;;21133182;28;20235;-73
2022/06/11 21:49:30;;;;;;;0.20;0.00;;;24.50;99.90;;;;;;21132247;28;20207;-73
2022/06/11 21:59:36;;;;;;;0.20;0.00;;;24.90;99.90;;;;;;21128463;28;20275;-72
2022/06/11 22:09:42;;;;;;;0.20;0.00;;;24.80;99.90;;;;;;21121271;28;20200;-73
2022/06/11 22:19:48;;;;;;;0.20;0.00;;;24.50;99.90;;;;;;21117344;28;20235;-74
2022/06/11 22:29:53;;;;;;;0.20;0.10;;;24.60;99.90;;;;;;21117734;28;20207;-72
2022/06/11 22:39:57;;;;;;;0.20;0.00;;;25.40;99.90;;;;;;21133484;28;20242;-73
2022/06/11 22:50:03;;;;;;;0.20;0.10;;;25.40;99.90;;;;;;21114749;28;20234;-74
2022/06/11 23:00:09;;;;;;;0.20;0.10;;;25.10;99.90;;;;;;21133475;28;20239;-73
2022/06/11 23:10:14;;;;;;;0.20;0.00;;;24.80;99.90;;;;;;21117465;28;20195;-73
2022/06/11 23:20:19;;;;;;;0.20;0.10;;;24.80;99.90;;;;;;21130874;28;20250;-72
2022/06/11 23:30:26;;;;;;;0.20;0.00;;;24.60;99.90;;;;;;21132543;28;20347;-72
2022/06/11 23:40:30;;;;;;;0.20;0.00;;;24.40;99.90;;;;;;21114499;28;20245;-72
2022/06/11 23:50:36;;;;;;;0.20;0.00;;;24.30;99.90;;;;;;21131684;28;20195;-72
